Site contains unofficial IBTrACS data. Visit the IBTrACS Website to access archived data.

1894 Hurricane NOT_NAMED (1894294N21300)


IBTrACS version v04r00. Visit IBTrACS website for data access.
Please direct all questions to the IBTrACS Q and A forum

Storm track - Intensity - Wind Radii - Intensity Data - Source Data - All data

Summary Information

Storm ID 1894294N21300
Start Oct 21 06Z
Max Intensity 95 kt (Oct 28 12Z), 955 mb (Oct 29 00Z)
End Oct 31 12Z
ATCF IDs AL071894
Track status Best track data.

Storm track plot

Map of storm track

Intensity plots

Map of storm track

Radial wind information

No radial wind information for this storm


Position and Intensity Table

BASIN ISO_TIME_________ NATURE LAT LON WMO WIND WMO PRES USA WIND USA PRES MLC WIND MLC PRES
degrees north degrees east kts mb kts mb kts mb
NA 1894-10-21 06:00:00 TS 21.00 -60.30 35 35 35
NA 09:00:00 TS 21.27 -60.65 37 37
NA 12:00:00 TS 21.50 -61.00 40 40 40
NA 15:00:00 TS 21.66 -61.35 40 40
NA 18:00:00 TS 21.80 -61.70 40 40 40
NA 21:00:00 TS 21.95 -62.04 42 42
NA 1894-10-22 00:00:00 TS 22.10 -62.40 45 45 45
NA 03:00:00 TS 22.25 -62.79 45 45
NA 06:00:00 TS 22.40 -63.20 45 45 45
NA 09:00:00 TS 22.56 -63.59 47 47
NA 12:00:00 TS 22.70 -64.00 50 50 50
NA 15:00:00 TS 22.76 -64.44 50 50
NA 18:00:00 TS 22.80 -64.90 50 50 50
NA 21:00:00 TS 22.83 -65.39 52 52
NA 1894-10-23 00:00:00 TS 22.90 -65.90 55 55 55
NA 03:00:00 TS 23.03 -66.44 57 57
NA 06:00:00 TS 23.20 -67.00 60 60 60
NA 09:00:00 TS 23.33 -67.53 62 60
NA 12:00:00 TS 23.50 -68.10 65 65 60
NA 15:00:00 TS 23.79 -68.80 65 62
NA 18:00:00 TS 24.10 -69.50 65 65 65
NA 21:00:00 TS 24.31 -70.07 67 67
NA 1894-10-24 00:00:00 TS 24.50 -70.60 70 70 70
NA 03:00:00 TS 24.68 -71.19 72 72
NA 06:00:00 TS 24.90 -71.80 75 75 75
NA 09:00:00 TS 25.21 -72.45 75 75
NA 12:00:00 TS 25.50 -73.00 75 75 75
NA 15:00:00 TS 25.66 -73.29 77 75
NA 18:00:00 TS 25.80 -73.50 80 80 75
NA 21:00:00 TS 25.99 -73.88 82 75
NA 1894-10-25 00:00:00 TS 26.20 -74.20 85 85 75
NA 03:00:00 TS 26.40 -74.33 85 75
NA 06:00:00 TS 26.60 -74.30 85 85 75
NA 09:00:00 TS 26.75 -74.26 85 75
NA 12:00:00 TS 27.00 -74.00 85 85 75
NA 15:00:00 TS 27.46 -73.40 85 75
NA 18:00:00 TS 28.00 -72.60 85 85 75
NA 21:00:00 TS 28.50 -71.81 85 75
NA 1894-10-26 00:00:00 TS 29.00 -71.00 85 85 75
NA 03:00:00 TS 29.50 -70.24 85 75
NA 06:00:00 TS 30.00 -69.50 85 85 75
NA 09:00:00 TS 30.44 -68.85 85 75
NA 12:00:00 TS 31.00 -68.00 85 85 75
NA 15:00:00 TS 31.85 -66.66 85 75
NA 18:00:00 TS 32.77 -65.17 85 85 75 980
NA 21:00:00 TS 33.51 -63.95 85 75
NA 1894-10-27 00:00:00 TS 34.30 -62.67 85 85 75
NA 03:00:00 TS 35.40 -61.01 85 75
NA 06:00:00 TS 36.60 -59.38 85 85 75
NA 09:00:00 TS 37.75 -58.07 85
NA 12:00:00 TS 39.00 -57.00 85 85
NA 15:00:00 TS 40.03 -55.73 85
NA 18:00:00 TS 41.10 -54.40 85 85
NA 21:00:00 TS 42.19 -52.96 87
NA 1894-10-28 00:00:00 TS 43.20 -51.50 90 90
NA 03:00:00 TS 44.02 -50.10 90
NA 06:00:00 TS 44.70 -48.70 90 90
NA 09:00:00 TS 45.32 -47.17 92
NA 12:00:00 TS 45.80 -45.80 95 95
NA 15:00:00 TS 46.13 -44.84 95
NA 18:00:00 TS 46.40 -44.10 95 95
NA 21:00:00 TS 46.70 -43.32 95
NA 1894-10-29 00:00:00 TS 47.00 -42.60 95 955 95 955
NA 03:00:00 TS 47.31 -41.93 92
NA 06:00:00 TS 47.60 -41.30 90 90
NA 09:00:00 TS 47.86 -40.64 87
NA 12:00:00 ET 48.10 -40.00 85 85
NA 15:00:00 ET 48.36 -39.39 85
NA 18:00:00 ET 48.60 -38.80 85 85
NA 21:00:00 ET 48.81 -38.21 85
NA 1894-10-30 00:00:00 ET 49.00 -37.60 85 85
NA 03:00:00 ET 49.19 -36.96 82
NA 06:00:00 ET 49.40 -36.30 80 80
NA 09:00:00 ET 49.63 -35.67 80
NA 12:00:00 ET 49.90 -35.00 80 80
NA 15:00:00 ET 50.18 -34.24 77
NA 18:00:00 ET 50.50 -33.40 75 75
NA 21:00:00 ET 50.88 -32.49 72
NA 1894-10-31 00:00:00 ET 51.30 -31.50 70 70
NA 03:00:00 ET 51.69 -30.43 67
NA 06:00:00 ET 52.10 -29.30 65 65
NA 09:00:00 ET 52.54 -28.16 65
NA 12:00:00 ET 53.00 -27.00 65 65

Source Information

Agency Information
USA hurdat2-1851-2019-042820.txt:Line=8150:UNNAMED
TOKYO
CMA
HKO
NEWDELHI
REUNION
BOM
NADI
WELLINGTON
DS824
TD9636
TD9635
NEUMANN
MLC

All available IBTrACS Data

SEASON BASIN SUBBASIN ISO_TIME_________ NATURE LAT LON WMO WIND WMO PRES WMO AGENCY DIST2LAND LANDFALL IFLAG USA AGENCY USA ATCF_ID USA LAT USA LON USA STATUS USA WIND USA PRES USA SSHS MLC LAT MLC LON MLC CLASS MLC WIND MLC PRES STORM SPEED STORM DIR
Year degrees north degrees east kts mb km km degrees north degrees east kts mb 1 degrees north degrees east kts mb kts degrees
1894 NA NA 1894-10-21 06:00:00 TS 21.00 -60.30 35 hurdat_atl 626 609 O____________O hurdat_atl AL071894 21.00 -60.30 TS 35 0 21.00 -60.30 TS 35 8 310
1894 NA NA 09:00:00 TS 21.27 -60.65 615 592 P____________P AL071894 21.27 -60.65 TS 37 0 21.27 -60.65 TS 37 8 307
1894 NA NA 12:00:00 TS 21.50 -61.00 40 hurdat_atl 592 574 O____________O hurdat_atl AL071894 21.50 -61.00 TS 40 0 21.50 -61.00 TS 40 8 301
1894 NA NA 15:00:00 TS 21.66 -61.35 573 557 P____________P AL071894 21.66 -61.35 TS 40 0 21.66 -61.35 TS 40 7 295
1894 NA NA 18:00:00 TS 21.80 -61.70 40 hurdat_atl 557 542 O____________O hurdat_atl AL071894 21.80 -61.70 TS 40 0 21.80 -61.70 TS 40 7 294
1894 NA NA 21:00:00 TS 21.95 -62.04 542 529 P____________P AL071894 21.95 -62.04 TS 42 0 21.95 -62.04 TS 42 7 295
1894 NA NA 1894-10-22 00:00:00 TS 22.10 -62.40 45 hurdat_atl 531 515 O____________O hurdat_atl AL071894 22.10 -62.40 TS 45 0 22.10 -62.40 TS 45 8 293
1894 NA NA 03:00:00 TS 22.25 -62.79 515 508 P____________P AL071894 22.25 -62.79 TS 45 0 22.25 -62.79 TS 45 8 292
1894 NA NA 06:00:00 TS 22.40 -63.20 45 hurdat_atl 512 507 O____________O hurdat_atl AL071894 22.40 -63.20 TS 45 0 22.40 -63.20 TS 45 8 293
1894 NA NA 09:00:00 TS 22.56 -63.59 513 505 P____________P AL071894 22.56 -63.59 TS 47 0 22.56 -63.59 TS 47 8 292
1894 NA NA 12:00:00 TS 22.70 -64.00 50 hurdat_atl 508 499 O____________O hurdat_atl AL071894 22.70 -64.00 TS 50 0 22.70 -64.00 TS 50 8 284
1894 NA NA 15:00:00 TS 22.76 -64.44 507 497 P____________P AL071894 22.76 -64.44 TS 50 0 22.76 -64.44 TS 50 8 277
1894 NA NA 18:00:00 TS 22.80 -64.90 50 hurdat_atl 497 492 O____________O hurdat_atl AL071894 22.80 -64.90 TS 50 0 22.80 -64.90 TS 50 9 275
1894 NA NA 21:00:00 TS 22.83 -65.39 492 492 P____________P AL071894 22.83 -65.39 TS 52 0 22.83 -65.39 TS 52 9 276
1894 NA NA 1894-10-23 00:00:00 TS 22.90 -65.90 55 hurdat_atl 503 503 O____________O hurdat_atl AL071894 22.90 -65.90 TS 55 0 22.90 -65.90 TS 55 10 282
1894 NA NA 03:00:00 TS 23.03 -66.44 511 496 P____________P AL071894 23.03 -66.44 TS 57 0 23.03 -66.44 TS 57 11 287
1894 NA NA 06:00:00 TS 23.20 -67.00 60 hurdat_atl 496 484 O____________O hurdat_atl AL071894 23.20 -67.00 TS 60 0 23.20 -67.00 TS 60 10 286
1894 NA NA 09:00:00 TS 23.33 -67.53 484 477 P____________P AL071894 23.33 -67.53 TS 62 0 23.33 -67.53 TS 60 11 287
1894 NA NA 12:00:00 TS 23.50 -68.10 65 hurdat_atl 478 474 O____________O hurdat_atl AL071894 23.50 -68.10 HU 65 1 23.50 -68.10 TS 60 13 292
1894 NA NA 15:00:00 TS 23.79 -68.80 484 480 P____________P AL071894 23.79 -68.80 HU 65 1 23.79 -68.80 TS 62 14 295
1894 NA NA 18:00:00 TS 24.10 -69.50 65 hurdat_atl 483 462 O____________O hurdat_atl AL071894 24.10 -69.50 HU 65 1 24.10 -69.50 HU 65 13 294
1894 NA NA 21:00:00 TS 24.31 -70.07 456 443 P____________P AL071894 24.31 -70.07 HU 67 1 24.31 -70.07 HU 67 11 292
1894 NA NA 1894-10-24 00:00:00 TS 24.50 -70.60 70 hurdat_atl 443 426 O____________O hurdat_atl AL071894 24.50 -70.60 HU 70 1 24.50 -70.60 HU 70 11 290
1894 NA NA 03:00:00 TS 24.68 -71.19 432 423 P____________P AL071894 24.68 -71.19 HU 72 1 24.68 -71.19 HU 72 12 290
1894 NA NA 06:00:00 TS 24.90 -71.80 75 hurdat_atl 431 428 O____________O hurdat_atl AL071894 24.90 -71.80 HU 75 1 24.90 -71.80 HU 75 13 295
1894 NA NA 09:00:00 TS 25.21 -72.45 450 450 P____________P AL071894 25.21 -72.45 HU 75 1 25.21 -72.45 HU 75 12 299
1894 NA NA 12:00:00 TS 25.50 -73.00 75 hurdat_atl 480 459 O____________O hurdat_atl AL071894 25.50 -73.00 HU 75 1 25.50 -73.00 HU 75 9 301
1894 NA NA 15:00:00 TS 25.66 -73.29 462 446 P____________P AL071894 25.66 -73.29 HU 77 1 25.66 -73.29 HU 75 5 304
1894 NA NA 18:00:00 TS 25.80 -73.50 80 hurdat_atl 446 417 O____________O hurdat_atl AL071894 25.80 -73.50 HU 80 1 25.80 -73.50 HU 75 6 302
1894 NA NA 21:00:00 TS 25.99 -73.88 417 398 P____________P AL071894 25.99 -73.88 HU 82 1 25.99 -73.88 HU 75 7 302
1894 NA NA 1894-10-25 00:00:00 TS 26.20 -74.20 85 hurdat_atl 398 393 O____________O hurdat_atl AL071894 26.20 -74.20 HU 85 2 26.20 -74.20 HU 75 6 316
1894 NA NA 03:00:00 TS 26.40 -74.33 397 397 P____________P AL071894 26.40 -74.33 HU 85 2 26.40 -74.33 HU 75 4 348
1894 NA NA 06:00:00 TS 26.60 -74.30 85 hurdat_atl 406 406 O____________O hurdat_atl AL071894 26.60 -74.30 HU 85 2 26.60 -74.30 HU 75 4 8
1894 NA NA 09:00:00 TS 26.75 -74.26 415 415 P____________P AL071894 26.75 -74.26 HU 85 2 26.75 -74.26 HU 75 5 34
1894 NA NA 12:00:00 TS 27.00 -74.00 85 hurdat_atl 452 452 O____________O hurdat_atl AL071894 27.00 -74.00 HU 85 2 27.00 -74.00 HU 75 10 48
1894 NA NA 15:00:00 TS 27.46 -73.40 530 530 P____________P AL071894 27.46 -73.40 HU 85 2 27.46 -73.40 HU 75 16 51
1894 NA NA 18:00:00 TS 28.00 -72.60 85 hurdat_atl 626 626 O____________O hurdat_atl AL071894 28.00 -72.60 HU 85 2 28.00 -72.60 HU 75 18 53
1894 NA NA 21:00:00 TS 28.50 -71.81 722 722 P____________P AL071894 28.50 -71.81 HU 85 2 28.50 -71.81 HU 75 17 55
1894 NA NA 1894-10-26 00:00:00 TS 29.00 -71.00 85 hurdat_atl 817 817 O____________O hurdat_atl AL071894 29.00 -71.00 HU 85 2 29.00 -71.00 HU 75 17 54
1894 NA NA 03:00:00 TS 29.50 -70.24 828 820 P____________P AL071894 29.50 -70.24 HU 85 2 29.50 -70.24 HU 75 16 53
1894 NA NA 06:00:00 TS 30.00 -69.50 85 hurdat_atl 838 838 O____________O hurdat_atl AL071894 30.00 -69.50 HU 85 2 30.00 -69.50 HU 75 15 52
1894 NA NA 09:00:00 TS 30.44 -68.85 861 854 P____________P AL071894 30.43 -68.83 HU 85 2 30.46 -68.88 HU 75 16 52
1894 NA NA 12:00:00 TS 31.00 -68.00 85 hurdat_atl 876 876 O____________O hurdat_atl AL071894 31.00 -68.00 HU 85 2 31.00 -68.00 HU 75 23 53
1894 NA NA 15:00:00 TS 31.85 -66.66 925 925 P____________P AL071894 31.88 -66.81 HU 85 2 31.79 -66.36 HU 75 30 54
1894 NA NA 18:00:00 TS 32.77 -65.17 85 hurdat_atl 1000 1000 O____________O hurdat_atl AL071894 32.90 -65.40 HU 85 2 32.50 -64.70 HU 75 980 28 54
1894 NA NA 21:00:00 TS 33.51 -63.95 1058 1038 P____________P AL071894 33.88 -63.93 HU 85 2 32.79 -63.98 HU 75 26 54
1894 NA NA 1894-10-27 00:00:00 TS 34.30 -62.67 85 hurdat_atl 1041 977 O____________O hurdat_atl AL071894 34.90 -62.40 HU 85 2 33.10 -63.20 HU 75 31 52
1894 NA NA 03:00:00 TS 35.40 -61.01 973 921 P____________P AL071894 36.01 -60.85 HU 85 2 33.75 -61.55 HU 75 35 49
1894 NA NA 06:00:00 TS 36.60 -59.38 85 hurdat_atl 916 870 O____________O hurdat_atl AL071894 37.10 -59.40 HU 85 2 34.60 -59.30 HU 75 33 45
1894 NA NA 09:00:00 TS 37.75 -58.07 859 773 P_____________ AL071894 38.05 -58.16 HU 85 2 HU 31 38
1894 NA NA 12:00:00 TS 39.00 -57.00 85 hurdat_atl 767 721 O_____________ hurdat_atl AL071894 39.00 -57.00 HU 85 2 29 38
1894 NA NA 15:00:00 TS 40.03 -55.73 726 626 P_____________ AL071894 40.03 -55.73 HU 85 2 29 43
1894 NA NA 18:00:00 TS 41.10 -54.40 85 hurdat_atl 614 500 O_____________ hurdat_atl AL071894 41.10 -54.40 HU 85 2 30 44
1894 NA NA 21:00:00 TS 42.19 -52.96 489 406 P_____________ AL071894 42.19 -52.96 HU 87 2 30 46
1894 NA NA 1894-10-28 00:00:00 TS 43.20 -51.50 90 hurdat_atl 400 371 O_____________ hurdat_atl AL071894 43.20 -51.50 HU 90 2 28 49
1894 NA NA 03:00:00 TS 44.02 -50.10 376 373 P_____________ AL071894 44.02 -50.10 HU 90 2 25 53
1894 NA NA 06:00:00 TS 44.70 -48.70 90 hurdat_atl 405 405 O_____________ hurdat_atl AL071894 44.70 -48.70 HU 90 2 24 58
1894 NA NA 09:00:00 TS 45.32 -47.17 475 475 P_____________ AL071894 45.32 -47.17 HU 92 2 23 62
1894 NA NA 12:00:00 TS 45.80 -45.80 95 hurdat_atl 550 550 O_____________ hurdat_atl AL071894 45.80 -45.80 HU 95 2 18 63
1894 NA NA 15:00:00 TS 46.13 -44.84 611 607 P_____________ AL071894 46.13 -44.84 HU 95 2 13 63
1894 NA NA 18:00:00 TS 46.40 -44.10 95 hurdat_atl 653 653 O_____________ hurdat_atl AL071894 46.40 -44.10 HU 95 2 12 62
1894 NA NA 21:00:00 TS 46.70 -43.32 706 706 P_____________ AL071894 46.70 -43.32 HU 95 2 12 60
1894 NA NA 1894-10-29 00:00:00 TS 47.00 -42.60 95 955 hurdat_atl 753 753 O_____________ hurdat_atl AL071894 47.00 -42.60 HU 95 955 2 11 57
1894 NA NA 03:00:00 TS 47.31 -41.93 801 801 P_____________ AL071894 47.31 -41.93 HU 92 2 11 56
1894 NA NA 06:00:00 TS 47.60 -41.30 90 hurdat_atl 843 843 O_____________ hurdat_atl AL071894 47.60 -41.30 HU 90 2 10 58
1894 NA NA 09:00:00 TS 47.86 -40.64 894 894 P_____________ AL071894 47.86 -40.64 HU 87 2 10 60
1894 NA NA 12:00:00 ET 48.10 -40.00 85 hurdat_atl 938 938 O_____________ hurdat_atl AL071894 48.10 -40.00 EX 85 -4 10 59
1894 NA NA 15:00:00 ET 48.36 -39.39 982 982 P_____________ AL071894 48.36 -39.39 EX 85 -4 9 58
1894 NA NA 18:00:00 ET 48.60 -38.80 85 hurdat_atl 1027 1027 O_____________ hurdat_atl AL071894 48.60 -38.80 EX 85 -4 9 60
1894 NA NA 21:00:00 ET 48.81 -38.21 1071 1071 P_____________ AL071894 48.81 -38.21 EX 85 -4 9 63
1894 NA NA 1894-10-30 00:00:00 ET 49.00 -37.60 85 hurdat_atl 1116 1116 O_____________ hurdat_atl AL071894 49.00 -37.60 EX 85 -4 9 65
1894 NA NA 03:00:00 ET 49.19 -36.96 1159 1159 P_____________ AL071894 49.19 -36.96 EX 82 -4 9 65
1894 NA NA 06:00:00 ET 49.40 -36.30 80 hurdat_atl 1210 1210 O_____________ hurdat_atl AL071894 49.40 -36.30 EX 80 -4 9 62
1894 NA NA 09:00:00 ET 49.63 -35.67 1253 1236 P_____________ AL071894 49.63 -35.67 EX 80 -4 10 59
1894 NA NA 12:00:00 ET 49.90 -35.00 80 hurdat_atl 1239 1227 O_____________ hurdat_atl AL071894 49.90 -35.00 EX 80 -4 11 59
1894 NA NA 15:00:00 ET 50.18 -34.24 1230 1220 P_____________ AL071894 50.18 -34.24 EX 77 -4 12 60
1894 NA NA 18:00:00 ET 50.50 -33.40 75 hurdat_atl 1223 1213 O_____________ hurdat_atl AL071894 50.50 -33.40 EX 75 -4 13 58
1894 NA NA 21:00:00 ET 50.88 -32.49 1213 1206 P_____________ AL071894 50.88 -32.49 EX 72 -4 14 56
1894 NA NA 1894-10-31 00:00:00 ET 51.30 -31.50 70 hurdat_atl 1209 1206 O_____________ hurdat_atl AL071894 51.30 -31.50 EX 70 -4 15 58
1894 NA NA 03:00:00 ET 51.69 -30.43 1214 1213 P_____________ AL071894 51.69 -30.43 EX 67 -4 16 60
1894 NA NA 06:00:00 ET 52.10 -29.30 65 hurdat_atl 1223 1195 O_____________ hurdat_atl AL071894 52.10 -29.30 EX 65 -4 16 59
1894 NA NA 09:00:00 ET 52.54 -28.16 1195 1117 P_____________ AL071894 52.54 -28.16 EX 65 -4 17 57
1894 NA NA 12:00:00 ET 53.00 -27.00 65 hurdat_atl 1111 O_____________ hurdat_atl AL071894 53.00 -27.00 EX 65 -4 17 57